sensor_id;sensor_type;location;lat;lon;timestamp;P1;durP1;ratioP1;P2;durP2;ratioP2
37647;SDS011;23490;53.656;10.076;2024-03-07T00:00:52;19.63;;;8.73;;
37647;SDS011;23490;53.656;10.076;2024-03-07T00:03:27;18.33;;;8.90;;
37647;SDS011;23490;53.656;10.076;2024-03-07T00:05:53;19.98;;;9.25;;
37647;SDS011;23490;53.656;10.076;2024-03-07T00:08:18;22.73;;;8.43;;
37647;SDS011;23490;53.656;10.076;2024-03-07T00:10:49;20.73;;;8.00;;
37647;SDS011;23490;53.656;10.076;2024-03-07T00:13:15;21.58;;;9.88;;
37647;SDS011;23490;53.656;10.076;2024-03-07T00:15:40;19.92;;;9.45;;
37647;SDS011;23490;53.656;10.076;2024-03-07T00:18:06;19.27;;;8.90;;
37647;SDS011;23490;53.656;10.076;2024-03-07T00:20:32;20.15;;;8.82;;
37647;SDS011;23490;53.656;10.076;2024-03-07T00:22:57;23.70;;;9.10;;
37647;SDS011;23490;53.656;10.076;2024-03-07T00:25:22;20.23;;;9.63;;
37647;SDS011;23490;53.656;10.076;2024-03-07T00:27:54;19.25;;;9.48;;
37647;SDS011;23490;53.656;10.076;2024-03-07T00:30:21;17.83;;;8.60;;
37647;SDS011;23490;53.656;10.076;2024-03-07T00:32:47;19.88;;;8.90;;
37647;SDS011;23490;53.656;10.076;2024-03-07T00:35:12;20.75;;;9.65;;
37647;SDS011;23490;53.656;10.076;2024-03-07T00:37:37;21.13;;;9.85;;
37647;SDS011;23490;53.656;10.076;2024-03-07T00:40:02;25.27;;;10.63;;
37647;SDS011;23490;53.656;10.076;2024-03-07T00:42:28;28.63;;;10.32;;
37647;SDS011;23490;53.656;10.076;2024-03-07T00:44:53;21.88;;;10.13;;
37647;SDS011;23490;53.656;10.076;2024-03-07T00:47:21;23.45;;;9.50;;
37647;SDS011;23490;53.656;10.076;2024-03-07T00:49:56;25.60;;;10.48;;
37647;SDS011;23490;53.656;10.076;2024-03-07T00:52:21;20.55;;;8.18;;
37647;SDS011;23490;53.656;10.076;2024-03-07T00:54:47;21.80;;;9.90;;
37647;SDS011;23490;53.656;10.076;2024-03-07T00:57:12;24.30;;;9.93;;
37647;SDS011;23490;53.656;10.076;2024-03-07T00:59:37;23.15;;;9.10;;
37647;SDS011;23490;53.656;10.076;2024-03-07T01:02:02;21.70;;;9.32;;
37647;SDS011;23490;53.656;10.076;2024-03-07T01:04:34;23.63;;;10.40;;
37647;SDS011;23490;53.656;10.076;2024-03-07T01:07:02;23.58;;;9.90;;
37647;SDS011;23490;53.656;10.076;2024-03-07T01:09:29;28.25;;;11.25;;
37647;SDS011;23490;53.656;10.076;2024-03-07T01:11:55;24.42;;;9.90;;
37647;SDS011;23490;53.656;10.076;2024-03-07T01:14:26;27.02;;;11.20;;
37647;SDS011;23490;53.656;10.076;2024-03-07T01:16:52;23.80;;;9.85;;
37647;SDS011;23490;53.656;10.076;2024-03-07T01:19:23;25.80;;;10.80;;
37647;SDS011;23490;53.656;10.076;2024-03-07T01:21:49;24.38;;;10.52;;
37647;SDS011;23490;53.656;10.076;2024-03-07T01:24:14;21.05;;;10.98;;
37647;SDS011;23490;53.656;10.076;2024-03-07T01:26:45;20.40;;;10.13;;
37647;SDS011;23490;53.656;10.076;2024-03-07T01:29:10;24.40;;;12.02;;
37647;SDS011;23490;53.656;10.076;2024-03-07T01:31:36;23.35;;;9.52;;
37647;SDS011;23490;53.656;10.076;2024-03-07T01:34:13;23.02;;;11.13;;
37647;SDS011;23490;53.656;10.076;2024-03-07T01:36:41;26.17;;;11.20;;
37647;SDS011;23490;53.656;10.076;2024-03-07T01:39:06;35.45;;;11.82;;
37647;SDS011;23490;53.656;10.076;2024-03-07T01:41:32;29.02;;;11.02;;
37647;SDS011;23490;53.656;10.076;2024-03-07T01:44:08;19.48;;;10.15;;
37647;SDS011;23490;53.656;10.076;2024-03-07T01:46:34;26.55;;;11.82;;
37647;SDS011;23490;53.656;10.076;2024-03-07T01:48:59;24.58;;;11.30;;
37647;SDS011;23490;53.656;10.076;2024-03-07T01:51:24;20.98;;;11.02;;
37647;SDS011;23490;53.656;10.076;2024-03-07T01:53:50;26.08;;;11.73;;
37647;SDS011;23490;53.656;10.076;2024-03-07T01:56:16;20.67;;;10.20;;
37647;SDS011;23490;53.656;10.076;2024-03-07T01:58:42;22.65;;;10.82;;
37647;SDS011;23490;53.656;10.076;2024-03-07T02:01:07;20.85;;;9.45;;
37647;SDS011;23490;53.656;10.076;2024-03-07T02:03:33;24.02;;;9.68;;
37647;SDS011;23490;53.656;10.076;2024-03-07T02:05:58;24.17;;;11.15;;
37647;SDS011;23490;53.656;10.076;2024-03-07T02:08:23;21.45;;;9.95;;
37647;SDS011;23490;53.656;10.076;2024-03-07T02:10:49;19.40;;;10.07;;
37647;SDS011;23490;53.656;10.076;2024-03-07T02:13:14;19.20;;;8.60;;
37647;SDS011;23490;53.656;10.076;2024-03-07T02:15:39;15.57;;;8.63;;
37647;SDS011;23490;53.656;10.076;2024-03-07T02:18:05;22.02;;;9.43;;
37647;SDS011;23490;53.656;10.076;2024-03-07T02:20:30;17.45;;;9.10;;
37647;SDS011;23490;53.656;10.076;2024-03-07T02:22:55;22.00;;;9.35;;
37647;SDS011;23490;53.656;10.076;2024-03-07T02:25:21;26.40;;;9.52;;
37647;SDS011;23490;53.656;10.076;2024-03-07T02:27:46;19.13;;;7.95;;
37647;SDS011;23490;53.656;10.076;2024-03-07T02:30:12;20.95;;;8.30;;
37647;SDS011;23490;53.656;10.076;2024-03-07T02:32:37;31.25;;;8.38;;
37647;SDS011;23490;53.656;10.076;2024-03-07T02:35:06;20.42;;;10.27;;
37647;SDS011;23490;53.656;10.076;2024-03-07T02:37:31;18.50;;;8.52;;
37647;SDS011;23490;53.656;10.076;2024-03-07T02:40:06;19.88;;;8.18;;
37647;SDS011;23490;53.656;10.076;2024-03-07T02:42:32;19.08;;;7.05;;
37647;SDS011;23490;53.656;10.076;2024-03-07T02:44:57;17.20;;;8.55;;
37647;SDS011;23490;53.656;10.076;2024-03-07T02:47:23;15.85;;;7.45;;
37647;SDS011;23490;53.656;10.076;2024-03-07T02:49:48;18.05;;;7.80;;
37647;SDS011;23490;53.656;10.076;2024-03-07T02:52:14;18.60;;;7.10;;
37647;SDS011;23490;53.656;10.076;2024-03-07T02:54:39;19.52;;;8.25;;
37647;SDS011;23490;53.656;10.076;2024-03-07T02:57:05;17.90;;;7.57;;
37647;SDS011;23490;53.656;10.076;2024-03-07T02:59:30;14.10;;;6.40;;
37647;SDS011;23490;53.656;10.076;2024-03-07T03:01:57;20.00;;;7.78;;
37647;SDS011;23490;53.656;10.076;2024-03-07T03:04:22;18.13;;;7.75;;
37647;SDS011;23490;53.656;10.076;2024-03-07T03:06:47;16.30;;;7.50;;
37647;SDS011;23490;53.656;10.076;2024-03-07T03:09:12;19.90;;;8.20;;
37647;SDS011;23490;53.656;10.076;2024-03-07T03:11:43;18.17;;;7.10;;
37647;SDS011;23490;53.656;10.076;2024-03-07T03:14:08;17.15;;;7.28;;
37647;SDS011;23490;53.656;10.076;2024-03-07T03:16:35;14.25;;;6.45;;
37647;SDS011;23490;53.656;10.076;2024-03-07T03:19:00;20.95;;;6.82;;
37647;SDS011;23490;53.656;10.076;2024-03-07T03:21:26;18.20;;;7.80;;
37647;SDS011;23490;53.656;10.076;2024-03-07T03:23:52;17.67;;;7.82;;
37647;SDS011;23490;53.656;10.076;2024-03-07T03:26:19;15.48;;;7.43;;
37647;SDS011;23490;53.656;10.076;2024-03-07T03:28:45;16.20;;;7.15;;
37647;SDS011;23490;53.656;10.076;2024-03-07T03:31:10;20.90;;;7.50;;
37647;SDS011;23490;53.656;10.076;2024-03-07T03:33:39;17.92;;;7.68;;
37647;SDS011;23490;53.656;10.076;2024-03-07T03:36:04;16.35;;;7.72;;
37647;SDS011;23490;53.656;10.076;2024-03-07T03:38:29;17.50;;;7.25;;
37647;SDS011;23490;53.656;10.076;2024-03-07T03:40:54;15.75;;;6.75;;
37647;SDS011;23490;53.656;10.076;2024-03-07T03:43:21;16.02;;;7.35;;
37647;SDS011;23490;53.656;10.076;2024-03-07T03:45:46;17.73;;;8.07;;
37647;SDS011;23490;53.656;10.076;2024-03-07T03:48:12;15.95;;;7.32;;
37647;SDS011;23490;53.656;10.076;2024-03-07T03:50:38;16.05;;;7.80;;
37647;SDS011;23490;53.656;10.076;2024-03-07T03:53:03;19.27;;;8.55;;
37647;SDS011;23490;53.656;10.076;2024-03-07T03:55:29;14.02;;;7.57;;
37647;SDS011;23490;53.656;10.076;2024-03-07T03:57:54;16.58;;;6.63;;
37647;SDS011;23490;53.656;10.076;2024-03-07T04:00:20;15.65;;;7.45;;
37647;SDS011;23490;53.656;10.076;2024-03-07T04:02:48;17.65;;;7.35;;
37647;SDS011;23490;53.656;10.076;2024-03-07T04:05:13;17.60;;;7.45;;
37647;SDS011;23490;53.656;10.076;2024-03-07T04:07:39;14.95;;;6.55;;
37647;SDS011;23490;53.656;10.076;2024-03-07T04:10:05;17.88;;;7.75;;
37647;SDS011;23490;53.656;10.076;2024-03-07T04:12:36;18.23;;;9.07;;
37647;SDS011;23490;53.656;10.076;2024-03-07T04:15:08;14.30;;;7.78;;
37647;SDS011;23490;53.656;10.076;2024-03-07T04:17:34;16.58;;;7.20;;
37647;SDS011;23490;53.656;10.076;2024-03-07T04:20:00;14.75;;;7.07;;
37647;SDS011;23490;53.656;10.076;2024-03-07T04:22:25;16.00;;;7.63;;
37647;SDS011;23490;53.656;10.076;2024-03-07T04:24:51;15.48;;;7.25;;
37647;SDS011;23490;53.656;10.076;2024-03-07T04:27:19;16.75;;;7.82;;
37647;SDS011;23490;53.656;10.076;2024-03-07T04:29:44;15.48;;;7.40;;
37647;SDS011;23490;53.656;10.076;2024-03-07T04:32:10;18.00;;;9.02;;
37647;SDS011;23490;53.656;10.076;2024-03-07T04:34:35;18.98;;;8.82;;
37647;SDS011;23490;53.656;10.076;2024-03-07T04:37:01;17.45;;;8.25;;
37647;SDS011;23490;53.656;10.076;2024-03-07T04:39:27;17.88;;;8.07;;
37647;SDS011;23490;53.656;10.076;2024-03-07T04:44:25;17.55;;;7.68;;
37647;SDS011;23490;53.656;10.076;2024-03-07T04:46:50;16.27;;;7.88;;
37647;SDS011;23490;53.656;10.076;2024-03-07T04:49:21;17.63;;;7.90;;
37647;SDS011;23490;53.656;10.076;2024-03-07T04:51:46;16.95;;;7.50;;
37647;SDS011;23490;53.656;10.076;2024-03-07T04:54:11;13.88;;;7.05;;
37647;SDS011;23490;53.656;10.076;2024-03-07T04:56:36;14.80;;;6.88;;
37647;SDS011;23490;53.656;10.076;2024-03-07T04:59:02;16.50;;;7.43;;
37647;SDS011;23490;53.656;10.076;2024-03-07T05:01:27;14.73;;;7.43;;
37647;SDS011;23490;53.656;10.076;2024-03-07T05:03:52;19.70;;;8.07;;
37647;SDS011;23490;53.656;10.076;2024-03-07T05:06:18;13.15;;;6.93;;
37647;SDS011;23490;53.656;10.076;2024-03-07T05:08:43;14.55;;;6.80;;
37647;SDS011;23490;53.656;10.076;2024-03-07T05:11:08;14.57;;;7.22;;
37647;SDS011;23490;53.656;10.076;2024-03-07T05:13:34;16.02;;;6.85;;
37647;SDS011;23490;53.656;10.076;2024-03-07T05:15:59;17.55;;;7.88;;
37647;SDS011;23490;53.656;10.076;2024-03-07T05:18:25;13.13;;;7.07;;
37647;SDS011;23490;53.656;10.076;2024-03-07T05:20:50;14.57;;;8.10;;
37647;SDS011;23490;53.656;10.076;2024-03-07T05:23:15;14.30;;;7.60;;
37647;SDS011;23490;53.656;10.076;2024-03-07T05:25:40;15.07;;;7.10;;
37647;SDS011;23490;53.656;10.076;2024-03-07T05:28:06;16.83;;;7.80;;
37647;SDS011;23490;53.656;10.076;2024-03-07T05:30:31;14.50;;;7.30;;
37647;SDS011;23490;53.656;10.076;2024-03-07T05:32:58;15.02;;;7.25;;
37647;SDS011;23490;53.656;10.076;2024-03-07T05:35:23;15.90;;;7.60;;
37647;SDS011;23490;53.656;10.076;2024-03-07T05:37:49;14.60;;;6.78;;
37647;SDS011;23490;53.656;10.076;2024-03-07T05:40:15;16.95;;;7.65;;
37647;SDS011;23490;53.656;10.076;2024-03-07T05:42:41;16.23;;;7.82;;
37647;SDS011;23490;53.656;10.076;2024-03-07T05:45:06;17.92;;;8.35;;
37647;SDS011;23490;53.656;10.076;2024-03-07T05:47:33;13.98;;;7.40;;
37647;SDS011;23490;53.656;10.076;2024-03-07T05:49:58;17.45;;;7.68;;
37647;SDS011;23490;53.656;10.076;2024-03-07T05:52:23;15.15;;;7.68;;
37647;SDS011;23490;53.656;10.076;2024-03-07T05:54:48;15.23;;;7.28;;
37647;SDS011;23490;53.656;10.076;2024-03-07T05:57:14;16.67;;;7.47;;
37647;SDS011;23490;53.656;10.076;2024-03-07T05:59:39;16.92;;;6.63;;
37647;SDS011;23490;53.656;10.076;2024-03-07T06:02:04;13.32;;;6.45;;
37647;SDS011;23490;53.656;10.076;2024-03-07T06:04:30;13.07;;;6.95;;
37647;SDS011;23490;53.656;10.076;2024-03-07T06:06:57;15.27;;;8.32;;
37647;SDS011;23490;53.656;10.076;2024-03-07T06:09:22;15.77;;;6.70;;
37647;SDS011;23490;53.656;10.076;2024-03-07T06:11:47;15.07;;;6.45;;
37647;SDS011;23490;53.656;10.076;2024-03-07T06:14:13;13.63;;;6.50;;
37647;SDS011;23490;53.656;10.076;2024-03-07T06:16:39;15.00;;;7.03;;
37647;SDS011;23490;53.656;10.076;2024-03-07T06:19:05;13.93;;;5.80;;
37647;SDS011;23490;53.656;10.076;2024-03-07T06:21:32;15.70;;;7.53;;
37647;SDS011;23490;53.656;10.076;2024-03-07T06:23:57;17.05;;;7.72;;
37647;SDS011;23490;53.656;10.076;2024-03-07T06:26:29;15.73;;;6.30;;
37647;SDS011;23490;53.656;10.076;2024-03-07T06:29:09;15.18;;;7.30;;
37647;SDS011;23490;53.656;10.076;2024-03-07T06:31:36;14.50;;;6.55;;
37647;SDS011;23490;53.656;10.076;2024-03-07T06:34:02;15.05;;;6.78;;
37647;SDS011;23490;53.656;10.076;2024-03-07T06:36:27;14.15;;;7.35;;
37647;SDS011;23490;53.656;10.076;2024-03-07T06:38:53;16.77;;;7.32;;
37647;SDS011;23490;53.656;10.076;2024-03-07T06:41:18;13.65;;;6.78;;
37647;SDS011;23490;53.656;10.076;2024-03-07T06:43:43;14.18;;;6.75;;
37647;SDS011;23490;53.656;10.076;2024-03-07T06:46:12;19.13;;;7.72;;
37647;SDS011;23490;53.656;10.076;2024-03-07T06:48:38;11.40;;;5.82;;
37647;SDS011;23490;53.656;10.076;2024-03-07T06:51:05;13.30;;;6.65;;
37647;SDS011;23490;53.656;10.076;2024-03-07T06:53:30;15.27;;;6.30;;
37647;SDS011;23490;53.656;10.076;2024-03-07T06:55:56;12.65;;;7.13;;
37647;SDS011;23490;53.656;10.076;2024-03-07T06:58:21;17.80;;;6.45;;
37647;SDS011;23490;53.656;10.076;2024-03-07T07:00:48;15.80;;;7.00;;
37647;SDS011;23490;53.656;10.076;2024-03-07T07:03:13;13.90;;;6.72;;
37647;SDS011;23490;53.656;10.076;2024-03-07T07:05:39;15.63;;;7.07;;
37647;SDS011;23490;53.656;10.076;2024-03-07T07:08:05;14.57;;;6.20;;
37647;SDS011;23490;53.656;10.076;2024-03-07T07:10:31;12.88;;;6.18;;
37647;SDS011;23490;53.656;10.076;2024-03-07T07:12:56;15.60;;;5.70;;
37647;SDS011;23490;53.656;10.076;2024-03-07T07:15:22;14.20;;;6.32;;
37647;SDS011;23490;53.656;10.076;2024-03-07T07:17:47;15.65;;;7.35;;
37647;SDS011;23490;53.656;10.076;2024-03-07T07:20:16;16.08;;;6.32;;
37647;SDS011;23490;53.656;10.076;2024-03-07T07:22:45;15.25;;;6.65;;
37647;SDS011;23490;53.656;10.076;2024-03-07T07:25:12;15.88;;;6.80;;
37647;SDS011;23490;53.656;10.076;2024-03-07T07:27:43;12.82;;;5.65;;
37647;SDS011;23490;53.656;10.076;2024-03-07T07:30:12;11.65;;;6.28;;
37647;SDS011;23490;53.656;10.076;2024-03-07T07:32:38;12.80;;;6.32;;
37647;SDS011;23490;53.656;10.076;2024-03-07T07:35:03;11.15;;;5.25;;
37647;SDS011;23490;53.656;10.076;2024-03-07T07:37:30;13.93;;;5.57;;
37647;SDS011;23490;53.656;10.076;2024-03-07T07:39:56;11.93;;;5.72;;
37647;SDS011;23490;53.656;10.076;2024-03-07T07:42:21;11.25;;;5.50;;
37647;SDS011;23490;53.656;10.076;2024-03-07T07:44:46;13.20;;;5.97;;
37647;SDS011;23490;53.656;10.076;2024-03-07T07:47:12;14.60;;;7.25;;
37647;SDS011;23490;53.656;10.076;2024-03-07T07:49:38;13.57;;;6.53;;
37647;SDS011;23490;53.656;10.076;2024-03-07T07:52:04;13.48;;;6.47;;
37647;SDS011;23490;53.656;10.076;2024-03-07T07:54:29;10.50;;;5.88;;
37647;SDS011;23490;53.656;10.076;2024-03-07T07:56:54;14.18;;;5.65;;
37647;SDS011;23490;53.656;10.076;2024-03-07T07:59:20;14.50;;;6.68;;
37647;SDS011;23490;53.656;10.076;2024-03-07T08:01:45;15.85;;;6.00;;
37647;SDS011;23490;53.656;10.076;2024-03-07T08:04:10;14.00;;;6.15;;
37647;SDS011;23490;53.656;10.076;2024-03-07T08:06:36;13.20;;;6.53;;
37647;SDS011;23490;53.656;10.076;2024-03-07T08:09:01;13.38;;;6.50;;
37647;SDS011;23490;53.656;10.076;2024-03-07T08:11:26;11.20;;;5.80;;
37647;SDS011;23490;53.656;10.076;2024-03-07T08:13:52;11.57;;;6.05;;
37647;SDS011;23490;53.656;10.076;2024-03-07T08:16:17;12.60;;;6.60;;
37647;SDS011;23490;53.656;10.076;2024-03-07T08:18:42;13.38;;;6.45;;
37647;SDS011;23490;53.656;10.076;2024-03-07T08:21:07;14.20;;;7.20;;
37647;SDS011;23490;53.656;10.076;2024-03-07T08:23:36;15.10;;;6.93;;
37647;SDS011;23490;53.656;10.076;2024-03-07T08:26:01;17.98;;;7.10;;
37647;SDS011;23490;53.656;10.076;2024-03-07T08:28:26;12.93;;;6.60;;
37647;SDS011;23490;53.656;10.076;2024-03-07T08:30:51;13.02;;;6.43;;
37647;SDS011;23490;53.656;10.076;2024-03-07T08:33:17;14.55;;;6.85;;
37647;SDS011;23490;53.656;10.076;2024-03-07T08:35:46;17.88;;;6.90;;
37647;SDS011;23490;53.656;10.076;2024-03-07T08:38:12;12.32;;;6.35;;
37647;SDS011;23490;53.656;10.076;2024-03-07T08:40:37;12.27;;;6.65;;
37647;SDS011;23490;53.656;10.076;2024-03-07T08:43:02;14.27;;;6.50;;
37647;SDS011;23490;53.656;10.076;2024-03-07T08:45:28;12.45;;;6.07;;
37647;SDS011;23490;53.656;10.076;2024-03-07T08:47:55;15.38;;;7.53;;
37647;SDS011;23490;53.656;10.076;2024-03-07T08:50:21;13.32;;;6.32;;
37647;SDS011;23490;53.656;10.076;2024-03-07T08:52:47;14.45;;;7.88;;
37647;SDS011;23490;53.656;10.076;2024-03-07T08:55:13;12.88;;;6.07;;
37647;SDS011;23490;53.656;10.076;2024-03-07T08:57:42;12.10;;;6.00;;
37647;SDS011;23490;53.656;10.076;2024-03-07T09:00:09;12.27;;;5.95;;
37647;SDS011;23490;53.656;10.076;2024-03-07T09:02:36;13.00;;;6.40;;
37647;SDS011;23490;53.656;10.076;2024-03-07T09:05:01;19.90;;;7.63;;
37647;SDS011;23490;53.656;10.076;2024-03-07T09:07:26;14.57;;;6.80;;
37647;SDS011;23490;53.656;10.076;2024-03-07T09:09:54;14.18;;;6.93;;
37647;SDS011;23490;53.656;10.076;2024-03-07T09:12:19;15.48;;;6.60;;
37647;SDS011;23490;53.656;10.076;2024-03-07T09:14:45;15.70;;;7.55;;
37647;SDS011;23490;53.656;10.076;2024-03-07T09:17:10;14.95;;;7.25;;
37647;SDS011;23490;53.656;10.076;2024-03-07T09:19:35;16.35;;;6.63;;
37647;SDS011;23490;53.656;10.076;2024-03-07T09:22:01;16.50;;;7.20;;
37647;SDS011;23490;53.656;10.076;2024-03-07T09:24:30;18.90;;;7.90;;
37647;SDS011;23490;53.656;10.076;2024-03-07T09:26:55;16.02;;;6.63;;
37647;SDS011;23490;53.656;10.076;2024-03-07T09:29:22;16.85;;;7.28;;
37647;SDS011;23490;53.656;10.076;2024-03-07T09:31:50;16.60;;;7.70;;
37647;SDS011;23490;53.656;10.076;2024-03-07T09:34:19;20.40;;;8.43;;
37647;SDS011;23490;53.656;10.076;2024-03-07T09:36:45;18.55;;;8.00;;
37647;SDS011;23490;53.656;10.076;2024-03-07T09:39:11;19.30;;;7.97;;
37647;SDS011;23490;53.656;10.076;2024-03-07T09:41:37;17.48;;;8.60;;
37647;SDS011;23490;53.656;10.076;2024-03-07T09:44:03;16.30;;;7.70;;
37647;SDS011;23490;53.656;10.076;2024-03-07T09:46:29;19.02;;;8.43;;
37647;SDS011;23490;53.656;10.076;2024-03-07T09:48:55;15.57;;;7.72;;
37647;SDS011;23490;53.656;10.076;2024-03-07T09:51:23;18.05;;;8.63;;
37647;SDS011;23490;53.656;10.076;2024-03-07T09:53:49;16.83;;;8.77;;
37647;SDS011;23490;53.656;10.076;2024-03-07T09:56:14;19.73;;;8.65;;
37647;SDS011;23490;53.656;10.076;2024-03-07T09:58:41;17.90;;;8.45;;
37647;SDS011;23490;53.656;10.076;2024-03-07T10:01:08;18.10;;;8.27;;
37647;SDS011;23490;53.656;10.076;2024-03-07T10:03:35;23.35;;;9.27;;
37647;SDS011;23490;53.656;10.076;2024-03-07T10:06:01;17.15;;;7.38;;
37647;SDS011;23490;53.656;10.076;2024-03-07T10:08:26;16.58;;;7.90;;
37647;SDS011;23490;53.656;10.076;2024-03-07T10:10:53;16.58;;;8.00;;
37647;SDS011;23490;53.656;10.076;2024-03-07T10:13:19;20.63;;;8.95;;
37647;SDS011;23490;53.656;10.076;2024-03-07T10:15:47;20.35;;;9.70;;
37647;SDS011;23490;53.656;10.076;2024-03-07T10:18:13;20.42;;;10.10;;
37647;SDS011;23490;53.656;10.076;2024-03-07T10:20:39;19.23;;;9.13;;
37647;SDS011;23490;53.656;10.076;2024-03-07T10:23:05;17.92;;;8.70;;
37647;SDS011;23490;53.656;10.076;2024-03-07T10:25:32;19.65;;;9.40;;
37647;SDS011;23490;53.656;10.076;2024-03-07T10:27:58;25.77;;;9.30;;
37647;SDS011;23490;53.656;10.076;2024-03-07T10:30:23;19.02;;;8.25;;
37647;SDS011;23490;53.656;10.076;2024-03-07T10:32:57;17.15;;;7.47;;
37647;SDS011;23490;53.656;10.076;2024-03-07T10:35:22;16.65;;;8.80;;
37647;SDS011;23490;53.656;10.076;2024-03-07T10:37:54;19.83;;;9.55;;
37647;SDS011;23490;53.656;10.076;2024-03-07T10:40:19;17.40;;;7.97;;
37647;SDS011;23490;53.656;10.076;2024-03-07T10:42:47;19.38;;;9.45;;
37647;SDS011;23490;53.656;10.076;2024-03-07T10:45:17;14.07;;;6.82;;
37647;SDS011;23490;53.656;10.076;2024-03-07T10:47:43;20.15;;;8.75;;
37647;SDS011;23490;53.656;10.076;2024-03-07T10:50:21;19.60;;;8.48;;
37647;SDS011;23490;53.656;10.076;2024-03-07T10:52:54;13.57;;;7.20;;
37647;SDS011;23490;53.656;10.076;2024-03-07T10:55:37;17.52;;;8.57;;
37647;SDS011;23490;53.656;10.076;2024-03-07T10:58:09;15.50;;;8.07;;
37647;SDS011;23490;53.656;10.076;2024-03-07T11:00:37;15.73;;;8.40;;
37647;SDS011;23490;53.656;10.076;2024-03-07T11:03:04;17.75;;;8.23;;
37647;SDS011;23490;53.656;10.076;2024-03-07T11:05:33;18.75;;;8.35;;
37647;SDS011;23490;53.656;10.076;2024-03-07T11:07:59;22.15;;;8.13;;
37647;SDS011;23490;53.656;10.076;2024-03-07T11:10:27;18.08;;;9.32;;
37647;SDS011;23490;53.656;10.076;2024-03-07T11:12:53;16.08;;;8.13;;
37647;SDS011;23490;53.656;10.076;2024-03-07T11:15:19;16.02;;;8.30;;
37647;SDS011;23490;53.656;10.076;2024-03-07T11:17:45;16.33;;;8.68;;
37647;SDS011;23490;53.656;10.076;2024-03-07T11:20:18;16.25;;;9.05;;
37647;SDS011;23490;53.656;10.076;2024-03-07T11:22:44;19.77;;;8.80;;
37647;SDS011;23490;53.656;10.076;2024-03-07T11:25:10;20.63;;;10.00;;
37647;SDS011;23490;53.656;10.076;2024-03-07T11:27:38;18.15;;;9.15;;
37647;SDS011;23490;53.656;10.076;2024-03-07T11:30:07;15.18;;;8.35;;
37647;SDS011;23490;53.656;10.076;2024-03-07T11:32:37;19.63;;;7.57;;
37647;SDS011;23490;53.656;10.076;2024-03-07T11:35:30;18.73;;;8.90;;
37647;SDS011;23490;53.656;10.076;2024-03-07T11:37:56;19.92;;;8.65;;
37647;SDS011;23490;53.656;10.076;2024-03-07T11:42:49;20.92;;;10.00;;
37647;SDS011;23490;53.656;10.076;2024-03-07T11:45:15;16.20;;;7.95;;
37647;SDS011;23490;53.656;10.076;2024-03-07T11:47:53;19.92;;;8.85;;
37647;SDS011;23490;53.656;10.076;2024-03-07T11:50:28;17.92;;;8.80;;
37647;SDS011;23490;53.656;10.076;2024-03-07T11:53:00;21.85;;;9.30;;
37647;SDS011;23490;53.656;10.076;2024-03-07T11:55:25;19.42;;;9.15;;
37647;SDS011;23490;53.656;10.076;2024-03-07T11:57:53;19.20;;;9.65;;
37647;SDS011;23490;53.656;10.076;2024-03-07T12:00:19;20.33;;;9.18;;
37647;SDS011;23490;53.656;10.076;2024-03-07T12:02:45;17.35;;;8.70;;
37647;SDS011;23490;53.656;10.076;2024-03-07T12:05:11;20.55;;;9.00;;
37647;SDS011;23490;53.656;10.076;2024-03-07T12:07:40;21.38;;;8.32;;
37647;SDS011;23490;53.656;10.076;2024-03-07T12:10:07;23.27;;;9.60;;
37647;SDS011;23490;53.656;10.076;2024-03-07T12:12:32;21.00;;;10.07;;
37647;SDS011;23490;53.656;10.076;2024-03-07T12:14:58;18.70;;;9.13;;
37647;SDS011;23490;53.656;10.076;2024-03-07T12:17:23;19.65;;;9.43;;
37647;SDS011;23490;53.656;10.076;2024-03-07T12:19:49;20.52;;;10.05;;
37647;SDS011;23490;53.656;10.076;2024-03-07T12:22:20;20.73;;;10.10;;
37647;SDS011;23490;53.656;10.076;2024-03-07T12:25:04;21.27;;;9.43;;
37647;SDS011;23490;53.656;10.076;2024-03-07T12:27:33;21.13;;;10.32;;
37647;SDS011;23490;53.656;10.076;2024-03-07T12:29:58;18.55;;;9.18;;
37647;SDS011;23490;53.656;10.076;2024-03-07T12:32:27;21.80;;;10.13;;
37647;SDS011;23490;53.656;10.076;2024-03-07T12:34:52;16.42;;;8.77;;
37647;SDS011;23490;53.656;10.076;2024-03-07T12:37:17;19.08;;;8.88;;
37647;SDS011;23490;53.656;10.076;2024-03-07T12:39:44;24.27;;;9.95;;
37647;SDS011;23490;53.656;10.076;2024-03-07T12:42:13;19.25;;;9.48;;
37647;SDS011;23490;53.656;10.076;2024-03-07T12:44:45;22.95;;;9.77;;
37647;SDS011;23490;53.656;10.076;2024-03-07T12:47:14;22.30;;;9.93;;
37647;SDS011;23490;53.656;10.076;2024-03-07T12:49:40;21.02;;;9.30;;
37647;SDS011;23490;53.656;10.076;2024-03-07T12:52:05;20.63;;;9.57;;
37647;SDS011;23490;53.656;10.076;2024-03-07T12:54:32;21.50;;;9.55;;
37647;SDS011;23490;53.656;10.076;2024-03-07T12:56:58;21.65;;;9.25;;
37647;SDS011;23490;53.656;10.076;2024-03-07T12:59:23;22.10;;;10.02;;
37647;SDS011;23490;53.656;10.076;2024-03-07T13:01:49;17.48;;;8.43;;
37647;SDS011;23490;53.656;10.076;2024-03-07T13:04:14;19.92;;;9.70;;
37647;SDS011;23490;53.656;10.076;2024-03-07T13:06:41;22.40;;;10.73;;
37647;SDS011;23490;53.656;10.076;2024-03-07T13:09:12;19.83;;;10.50;;
37647;SDS011;23490;53.656;10.076;2024-03-07T13:11:38;19.63;;;11.05;;
37647;SDS011;23490;53.656;10.076;2024-03-07T13:14:06;21.48;;;11.20;;
37647;SDS011;23490;53.656;10.076;2024-03-07T13:16:32;22.73;;;9.60;;
37647;SDS011;23490;53.656;10.076;2024-03-07T13:18:57;22.70;;;10.80;;
37647;SDS011;23490;53.656;10.076;2024-03-07T13:21:22;18.80;;;9.85;;
37647;SDS011;23490;53.656;10.076;2024-03-07T13:23:47;20.40;;;9.88;;
37647;SDS011;23490;53.656;10.076;2024-03-07T13:26:13;21.27;;;10.57;;
37647;SDS011;23490;53.656;10.076;2024-03-07T13:28:42;19.52;;;10.60;;
37647;SDS011;23490;53.656;10.076;2024-03-07T13:31:09;25.23;;;10.30;;
37647;SDS011;23490;53.656;10.076;2024-03-07T13:33:36;22.40;;;11.10;;
37647;SDS011;23490;53.656;10.076;2024-03-07T13:36:02;21.00;;;10.70;;
37647;SDS011;23490;53.656;10.076;2024-03-07T13:38:27;25.13;;;11.98;;
37647;SDS011;23490;53.656;10.076;2024-03-07T13:40:52;26.17;;;12.23;;
37647;SDS011;23490;53.656;10.076;2024-03-07T13:43:18;25.10;;;11.25;;
37647;SDS011;23490;53.656;10.076;2024-03-07T13:45:43;23.83;;;11.27;;
37647;SDS011;23490;53.656;10.076;2024-03-07T13:48:10;27.40;;;10.82;;
37647;SDS011;23490;53.656;10.076;2024-03-07T13:50:38;18.42;;;9.52;;
37647;SDS011;23490;53.656;10.076;2024-03-07T13:53:05;21.02;;;10.20;;
37647;SDS011;23490;53.656;10.076;2024-03-07T13:55:34;20.38;;;9.32;;
37647;SDS011;23490;53.656;10.076;2024-03-07T13:58:05;25.17;;;11.32;;
37647;SDS011;23490;53.656;10.076;2024-03-07T14:00:35;20.60;;;10.77;;
37647;SDS011;23490;53.656;10.076;2024-03-07T14:03:16;21.90;;;10.80;;
37647;SDS011;23490;53.656;10.076;2024-03-07T14:06:03;22.17;;;10.25;;
37647;SDS011;23490;53.656;10.076;2024-03-07T14:17:13;27.33;;;10.65;;
37647;SDS011;23490;53.656;10.076;2024-03-07T14:19:43;18.92;;;11.00;;
37647;SDS011;23490;53.656;10.076;2024-03-07T14:25:18;21.23;;;11.32;;
37647;SDS011;23490;53.656;10.076;2024-03-07T14:30:43;22.00;;;11.23;;
37647;SDS011;23490;53.656;10.076;2024-03-07T14:33:14;19.63;;;10.18;;
37647;SDS011;23490;53.656;10.076;2024-03-07T14:36:00;19.10;;;10.57;;